createdAt,value
2022-08-20T00:01:45.167Z,26.00
2022-08-20T00:06:50.726Z,25.98
2022-08-20T00:11:56.187Z,25.95
2022-08-20T00:17:02.109Z,25.94
2022-08-20T00:22:07.865Z,25.92
2022-08-20T00:27:13.313Z,25.89
2022-08-20T00:32:19.860Z,25.89
2022-08-20T00:37:26.003Z,25.87
2022-08-20T00:42:31.545Z,25.85
2022-08-20T00:47:37.363Z,25.83
2022-08-20T00:52:43.866Z,25.81
2022-08-20T00:58:01.150Z,25.79
2022-08-20T01:03:10.102Z,25.76
2022-08-20T01:08:17.077Z,25.73
2022-08-20T01:13:24.073Z,25.69
2022-08-20T01:18:30.157Z,25.66
2022-08-20T01:23:39.297Z,25.62
2022-08-20T01:28:45.916Z,25.58
2022-08-20T01:33:51.657Z,25.52
2022-08-20T01:38:57.306Z,25.47
2022-08-20T01:44:02.925Z,25.42
2022-08-20T01:49:18.281Z,25.36
2022-08-20T01:54:29.593Z,25.30
2022-08-20T01:59:35.352Z,25.23
2022-08-20T02:04:40.897Z,25.16
2022-08-20T02:09:46.396Z,25.09
2022-08-20T02:14:53.645Z,25.02
2022-08-20T02:20:00.748Z,24.95
2022-08-20T02:25:06.942Z,24.87
2022-08-20T02:30:27.606Z,24.78
2022-08-20T02:35:34.040Z,24.67
2022-08-20T02:40:39.720Z,24.57
2022-08-20T02:45:45.381Z,24.47
2022-08-20T02:50:51.621Z,24.36
2022-08-20T02:55:57.068Z,24.26
2022-08-20T03:01:02.953Z,24.18
2022-08-20T03:06:09.673Z,24.10
2022-08-20T03:11:15.079Z,24.02
2022-08-20T03:16:20.921Z,23.96
2022-08-20T03:21:27.034Z,23.89
2022-08-20T03:26:32.669Z,23.84
2022-08-20T03:31:38.461Z,23.79
2022-08-20T03:36:43.811Z,23.74
2022-08-20T03:41:49.248Z,23.70
2022-08-20T03:46:55.084Z,23.66
2022-08-20T03:52:01.813Z,23.62
2022-08-20T03:57:12.846Z,23.58
2022-08-20T04:02:18.803Z,23.54
2022-08-20T04:07:27.949Z,23.51
2022-08-20T04:12:33.355Z,23.48
2022-08-20T04:17:42.474Z,23.45
2022-08-20T04:22:57.538Z,23.41
2022-08-20T04:28:07.062Z,23.39
2022-08-20T04:33:12.602Z,23.35
2022-08-20T04:38:18.965Z,23.32
2022-08-20T04:43:25.153Z,23.28
2022-08-20T04:48:31.638Z,23.25
2022-08-20T04:53:37.186Z,23.21
2022-08-20T04:58:48.304Z,23.17
2022-08-20T05:03:55.125Z,23.13
2022-08-20T05:09:01.417Z,23.09
2022-08-20T05:14:09.334Z,23.05
2022-08-20T05:19:15.165Z,23.00
2022-08-20T05:24:20.747Z,22.94
2022-08-20T05:29:28.147Z,22.88
2022-08-20T05:34:33.692Z,22.81
2022-08-20T05:39:39.111Z,22.74
2022-08-20T05:44:47.604Z,22.67
2022-08-20T05:49:52.984Z,22.61
2022-08-20T05:54:58.809Z,22.56
2022-08-20T06:00:06.333Z,22.50
2022-08-20T06:05:17.537Z,22.44
2022-08-20T06:10:22.808Z,22.38
2022-08-20T06:15:28.792Z,22.31
2022-08-20T06:20:34.695Z,22.20
2022-08-20T06:25:40.517Z,22.08
2022-08-20T06:30:46.122Z,21.95
2022-08-20T06:35:51.644Z,21.80
2022-08-20T06:40:57.518Z,21.66
2022-08-20T06:46:03.216Z,21.53
2022-08-20T06:51:10.186Z,21.41
2022-08-20T06:56:16.094Z,21.32
2022-08-20T07:01:22.294Z,21.23
2022-08-20T07:06:28.759Z,21.16
2022-08-20T07:11:36.098Z,21.10
2022-08-20T07:16:41.882Z,21.06
2022-08-20T07:21:50.618Z,21.04
2022-08-20T07:26:56.998Z,21.02
2022-08-20T07:32:21.903Z,21.01
2022-08-20T07:37:28.568Z,21.01
2022-08-20T07:42:34.643Z,21.02
2022-08-20T07:47:41.085Z,21.03
2022-08-20T07:52:47.373Z,21.04
2022-08-20T07:57:53.535Z,21.05
2022-08-20T08:03:00.647Z,21.06
2022-08-20T08:08:07.940Z,21.08
2022-08-20T08:13:15.071Z,21.10
2022-08-20T08:18:28.786Z,21.12
2022-08-20T08:23:37.729Z,21.19
2022-08-20T08:28:44.960Z,21.26
2022-08-20T08:33:51.204Z,21.34
2022-08-20T08:38:57.417Z,21.42
2022-08-20T08:44:06.471Z,21.54
2022-08-20T08:49:16.072Z,21.64
2022-08-20T08:54:25.207Z,21.77
2022-08-20T08:59:52.459Z,21.87
2022-08-20T09:05:00.464Z,22.01
2022-08-20T09:10:07.646Z,22.15
2022-08-20T09:15:15.034Z,22.30
2022-08-20T09:20:25.950Z,22.47
2022-08-20T09:25:35.303Z,22.64
2022-08-20T09:30:41.399Z,22.82
2022-08-20T09:35:49.531Z,23.01
2022-08-20T09:40:55.681Z,23.19
2022-08-20T09:46:02.826Z,23.36
2022-08-20T09:51:09.200Z,23.52
2022-08-20T09:56:16.302Z,23.68
2022-08-20T10:01:23.410Z,23.82
2022-08-20T10:06:30.921Z,23.96
2022-08-20T10:11:39.663Z,24.11
2022-08-20T10:16:46.330Z,24.24
2022-08-20T10:21:54.248Z,24.38
2022-08-20T10:27:01.317Z,24.52
2022-08-20T10:32:15.221Z,24.65
2022-08-20T10:37:22.689Z,24.79
2022-08-20T10:42:29.326Z,24.94
2022-08-20T10:47:35.540Z,25.07
2022-08-20T10:52:41.918Z,25.23
2022-08-20T10:57:48.887Z,25.38
2022-08-20T11:02:56.398Z,25.51
2022-08-20T11:08:03.897Z,25.62
2022-08-20T11:13:12.612Z,25.74
2022-08-20T11:18:18.612Z,25.84
2022-08-20T11:23:25.241Z,25.93
2022-08-20T11:28:33.607Z,26.03
2022-08-20T11:33:39.922Z,26.14
2022-08-20T11:38:46.754Z,26.27
2022-08-20T11:44:17.448Z,26.42
2022-08-20T11:49:20.231Z,26.59
2022-08-20T11:54:29.200Z,26.75
2022-08-20T11:59:35.022Z,26.92
2022-08-20T12:04:41.242Z,27.08
2022-08-20T12:09:50.763Z,27.24
2022-08-20T12:14:58.045Z,27.39
2022-08-20T12:20:06.631Z,27.53
2022-08-20T12:25:13.760Z,27.66
2022-08-20T12:30:21.353Z,27.80
2022-08-20T12:35:27.772Z,27.93
2022-08-20T12:40:34.858Z,28.07
2022-08-20T12:45:42.076Z,28.24
2022-08-20T12:50:50.481Z,28.42
2022-08-20T12:55:56.908Z,28.59
2022-08-20T13:01:03.401Z,28.75
2022-08-20T13:06:10.086Z,28.87
2022-08-20T13:11:16.445Z,28.97
2022-08-20T13:16:22.405Z,29.07
2022-08-20T13:21:29.344Z,29.16
2022-08-20T13:26:36.492Z,29.23
2022-08-20T13:31:45.584Z,29.30
2022-08-20T13:36:51.441Z,29.38
2022-08-20T13:41:57.306Z,29.45
2022-08-20T13:47:14.654Z,29.51
2022-08-20T13:52:20.328Z,29.59
2022-08-20T13:57:27.524Z,29.66
2022-08-20T14:02:32.823Z,29.73
2022-08-20T14:07:38.494Z,29.80
2022-08-20T14:12:44.001Z,29.88
2022-08-20T14:17:53.132Z,29.98
2022-08-20T14:22:59.122Z,30.07
2022-08-20T14:28:13.481Z,30.16
2022-08-20T14:33:19.057Z,30.23
2022-08-20T14:38:24.680Z,30.29
2022-08-20T14:43:33.028Z,30.33
2022-08-20T14:48:38.496Z,30.36
2022-08-20T14:53:44.217Z,30.37
2022-08-20T14:58:49.768Z,30.36
2022-08-20T15:03:55.399Z,30.35
2022-08-20T15:09:00.836Z,30.33
2022-08-20T15:14:06.518Z,30.31
2022-08-20T15:19:12.140Z,30.28
2022-08-20T15:24:19.243Z,30.25
2022-08-20T15:29:25.007Z,30.21
2022-08-20T15:34:30.984Z,30.18
2022-08-20T15:39:36.786Z,30.13
2022-08-20T15:44:43.083Z,30.09
2022-08-20T15:49:50.047Z,30.05
2022-08-20T15:54:56.472Z,30.00
2022-08-20T16:00:10.637Z,29.96
2022-08-20T16:05:21.438Z,29.91
2022-08-20T16:10:29.799Z,29.86
2022-08-20T16:15:37.537Z,29.82
2022-08-20T16:20:43.866Z,29.77
2022-08-20T16:25:59.221Z,29.72
2022-08-20T16:31:05.713Z,29.68
2022-08-20T16:36:17.155Z,29.63
2022-08-20T16:41:26.219Z,29.58
2022-08-20T16:46:37.975Z,29.52
2022-08-20T16:51:49.423Z,29.46
2022-08-20T16:57:01.410Z,29.40
2022-08-20T17:02:10.449Z,29.33
2022-08-20T17:07:16.245Z,29.26
2022-08-20T17:12:23.630Z,29.18
2022-08-20T17:17:30.305Z,29.11
2022-08-20T17:22:43.394Z,29.02
2022-08-20T17:27:49.467Z,28.95
2022-08-20T17:33:01.516Z,28.86
2022-08-20T17:38:07.145Z,28.78
2022-08-20T17:43:24.838Z,28.69
2022-08-20T17:48:33.029Z,28.60
2022-08-20T17:53:40.700Z,28.52
2022-08-20T17:58:57.265Z,28.45
2022-08-20T18:04:05.670Z,28.36
2022-08-20T18:09:13.538Z,28.27
2022-08-20T18:14:28.449Z,28.19
2022-08-20T18:19:44.278Z,28.12
2022-08-20T18:24:56.515Z,28.03
2022-08-20T18:30:02.961Z,27.95
2022-08-20T18:35:19.563Z,27.88
2022-08-20T18:40:33.251Z,27.80
2022-08-20T18:45:38.844Z,27.72
2022-08-20T18:50:48.107Z,27.63
2022-08-20T18:56:04.167Z,27.55
2022-08-20T19:01:13.425Z,27.47
2022-08-20T19:06:38.117Z,27.38
2022-08-20T19:12:02.756Z,27.29
2022-08-20T19:17:11.519Z,27.20
2022-08-20T19:22:19.661Z,27.11
2022-08-20T19:27:25.388Z,27.02
2022-08-20T19:32:32.346Z,26.93
2022-08-20T19:37:50.699Z,26.85
2022-08-20T19:42:59.066Z,26.76
2022-08-20T19:48:11.175Z,26.68
2022-08-20T19:53:27.488Z,26.59
2022-08-20T19:58:37.344Z,26.50
2022-08-20T20:03:43.294Z,26.41
2022-08-20T20:08:54.820Z,26.34
2022-08-20T20:14:04.746Z,26.25
2022-08-20T20:19:28.085Z,26.18
2022-08-20T20:24:43.008Z,26.09
2022-08-20T20:29:49.922Z,26.02
2022-08-20T20:34:56.540Z,25.95
2022-08-20T20:40:05.562Z,25.88
2022-08-20T20:45:21.585Z,25.81
2022-08-20T20:50:32.952Z,25.74
2022-08-20T20:55:40.255Z,25.66
2022-08-20T21:00:45.816Z,25.60
2022-08-20T21:05:51.507Z,25.52
2022-08-20T21:10:58.361Z,25.46
2022-08-20T21:16:03.941Z,25.40
2022-08-20T21:21:10.723Z,25.33
2022-08-20T21:26:16.032Z,25.27
2022-08-20T21:31:21.519Z,25.20
2022-08-20T21:36:27.075Z,25.14
2022-08-20T21:41:32.694Z,25.09
2022-08-20T21:46:39.062Z,25.04
2022-08-20T21:51:44.756Z,24.99
2022-08-20T21:56:51.387Z,24.94
2022-08-20T22:01:57.527Z,24.89
2022-08-20T22:07:03.152Z,24.84
2022-08-20T22:12:12.674Z,24.79
2022-08-20T22:17:18.407Z,24.74
2022-08-20T22:22:24.553Z,24.69
2022-08-20T22:27:29.931Z,24.64
2022-08-20T22:32:50.452Z,24.59
2022-08-20T22:37:58.253Z,24.54
2022-08-20T22:43:03.773Z,24.49
2022-08-20T22:48:09.751Z,24.44
2022-08-20T22:53:15.937Z,24.39
2022-08-20T22:58:31.124Z,24.34
2022-08-20T23:03:39.858Z,24.30
2022-08-20T23:08:46.078Z,24.27
2022-08-20T23:13:51.566Z,24.22
2022-08-20T23:18:56.814Z,24.19
2022-08-20T23:24:02.242Z,24.15
2022-08-20T23:29:08.159Z,24.12
2022-08-20T23:34:13.601Z,24.09
2022-08-20T23:39:19.134Z,24.05
2022-08-20T23:44:26.804Z,24.00
2022-08-20T23:49:33.404Z,23.97
2022-08-20T23:54:39.201Z,23.92
2022-08-20T23:59:44.794Z,23.88
